• Join FlightAware (Why Join?)
  • Login
  • US Flag 
05:54PM EDT


 

Airport Tracker/Info


-or-


 

Live Flight TrackerFlight Track Log ✈ CPZ5750 ✈ 09-Jul-2013 ✈ KMSP - KALB

Flight Track Log - Related Links

Times and Time Zones

All times are in EDT time to prevent confusion due to time zone crossing. See the CPZ5750 flight status page for this flight to view local times or setup timezone preferences in your user account.

Time Position Orientation Groundspeed Altitude Reporting Facility
EDT Latitude Longitude Course Direction KTS MPH feet Rate Location/Type
04:41PM 44.9494 -93.2508 45° Northeast 175 201 3,200  Level Minneapolis Center
04:42PM 44.9967 -93.2003 37° Northeast 236 272 5,700 2,220 Climbing Minneapolis Center
04:43PM 45.0331 -93.1131 59° Northeast 256 295 7,900 2,220 Climbing Minneapolis Center
04:44PM 45.0814 -93.0028 58° Northeast 299 344 10,300 1,620 Climbing Minneapolis Center
04:45PM 45.1303 -92.8833 60° Northeast 354 407 11,300 1,560 Climbing Minneapolis Center
04:46PM 45.3460 -92.4763 45° Northeast  Level FlightAware Approximate
04:46PM 45.1900 -92.7453 58° Northeast 381 438 13,600  Level Minneapolis Center
04:47PM 45.2503 -92.6169 56° Northeast 391 450 15,300 1,560 Climbing Minneapolis Center
04:48PM 45.3119 -92.4806 57° Northeast 412 474 16,900 1,740 Climbing Minneapolis Center
04:49PM 45.3086 -92.2978 91° East 434 499 19,000 1,680 Climbing Minneapolis Center
04:50PM 45.3008 -92.1597 95° East 439 505 20,400 1,500 Climbing Minneapolis Center
04:51PM 45.2894 -91.9558 94° East 442 509 22,100 1,440 Climbing Minneapolis Center
04:52PM 45.2786 -91.7839 95° East 441 507 23,500 1,260 Climbing Minneapolis Center
04:53PM 45.2683 -91.5950 94° East 456 525 24,800 1,020 Climbing Minneapolis Center
04:54PM 45.2600 -91.4478 95° East 463 533 25,700 960 Climbing Minneapolis Center
04:55PM 45.2433 -91.1842 95° East 477 549 26,900 960 Climbing Minneapolis Center
04:56PM 45.2303 -90.9911 95° East 487 560 27,700 780 Climbing Minneapolis Center
04:57PM 45.2183 -90.7936 95° East 500 575 28,600 840 Climbing Minneapolis Center
04:58PM 45.2044 -90.5961 96° East 505 581 29,500 960 Climbing Minneapolis Center
04:59PM 45.1928 -90.4397 96° East 503 579 30,600 720 Climbing Minneapolis Center
05:00PM 45.1733 -90.1714 96° East 493 567 31,000 300 Climbing Minneapolis Center
05:01PM 45.1603 -89.9817 96° East 489 563 31,300 480 Climbing Minneapolis Center
05:02PM 45.1447 -89.7900 96° East 491 565 32,100 780 Climbing Minneapolis Center
05:03PM 45.1308 -89.6017 96° East 487 560 33,000 420 Climbing Minneapolis Center
05:04PM 45.1164 -89.4119 96° East 487 560 33,000  Level Minneapolis Center
05:05PM 45.1053 -89.2603 96° East 487 560 33,000  Level Minneapolis Center
05:06PM 45.0833 -88.9944 97° East 488 562 33,000  Level Minneapolis Center
05:07PM 45.0661 -88.8053 97° East 488 562 33,000  Level Minneapolis Center
05:08PM 45.0517 -88.6239 96° East 488 562 33,000  Level Minneapolis Center
05:10PM 45.0344 -88.4339 97° East 488 562 33,000  Level Minneapolis Center
05:11PM 45.0119 -88.1686 97° East 487 560 33,000  Level Minneapolis Center
05:12PM 44.9939 -87.9758 97° East 493 567 33,000  Level Minneapolis Center
05:13PM 44.9769 -87.7867 97° East 489 563 33,000  Level Minneapolis Center
05:14PM 44.9592 -87.5981 98° East 486 559 33,000  Level Minneapolis Center
05:15PM 44.9394 -87.4072 98° East 491 565 33,000  Level Minneapolis Center
05:16PM 44.9208 -87.2178 98° East 489 563 33,000  Level Minneapolis Center
05:17PM 44.8986 -86.9900 98° East 490 564 33,000  Level Minneapolis Center
05:18PM 44.8800 -86.8025 98° East 486 559 33,000  Level Minneapolis Center
05:19PM 44.8619 -86.6236 98° East 489 563 33,000  Level Minneapolis Center
05:20PM 44.8411 -86.4328 99° East 491 565 33,000  Level Minneapolis Center
05:21PM 44.8178 -86.2067 98° East 489 563 33,000  Level Minneapolis Center
05:22PM 44.7975 -86.0194 99° East 485 558 33,000  Level Minneapolis Center
05:23PM 44.7769 -85.8297 99° East 488 562 33,000  Level Minneapolis Center
05:24PM 44.7567 -85.6508 99° East 490 564 33,000  Level Minneapolis Center
05:25PM 44.7422 -85.4208 95° East 495 570 33,000  Level Minneapolis Center
05:26PM 44.7497 -85.2283 87° East 496 571 33,000  Level Minneapolis Center
05:27PM 44.7556 -85.0350 87° East 497 572 33,000  Level Minneapolis Center
05:28PM 44.7631 -84.8406 87° East 498 573 33,000  Level Minneapolis Center
05:29PM 44.7481 -84.6503 96° East 491 565 33,000  Level Minneapolis Center
05:30PM 44.7225 -84.4622 101° East 491 565 33,000  Level Minneapolis Center
05:31PM 44.6922 -84.2364 101° East 491 565 33,000  Level Minneapolis Center
05:32PM 44.6664 -84.0461 101° East 494 568 33,000  Level Minneapolis Center
05:34PM 44.6389 -83.8589 102° East 493 567 33,000  Level Minneapolis Center
05:35PM 44.6147 -83.6722 100° East 490 564 33,000  Level Minneapolis Center
05:36PM 44.5883 -83.4836 101° East 491 565 33,000  Level Minneapolis Center
05:37PM 44.5558 -83.2592 101° East 492 566 33,000  Level Minneapolis Center
05:38PM 44.5236 -83.0389 102° East 485 558 33,000  Level Minneapolis Center
05:39PM 44.4981 -82.8567 101° East 480 552 33,000  Level Minneapolis Center
05:40PM 44.4703 -82.6747 102° East 479 551 33,000  Level Minneapolis Center
05:41PM 44.4428 -82.4947 102° East 477 549 33,000  Level Minneapolis Center
05:42PM 44.4169 -82.3147 101° East 475 547 33,000  Level Minneapolis Center
05:43PM 44.3500 -82.0333 108° East 480 552 33,000  Level Toronto Center
05:44PM 44.3333 -81.8667 98° East 480 552 33,000  Level Toronto Center
05:45PM 44.3167 -81.7000 98° East 470 541 33,000  Level Toronto Center
05:46PM 44.2833 -81.5167 104° East 470 541 33,000 -60 Level Toronto Center
05:47PM 44.2500 -81.3500 106° East 470 541 32,900 -1,080 Descending Toronto Center
05:48PM 44.2167 -81.1667 104° East 460 529 30,900 -1,980 Descending Toronto Center
05:49PM 44.1833 -81.0000 106° East 440 506 29,000 -960 Descending Toronto Center
05:50PM 44.1500 -80.8333 106° East 440 506 29,000  Level Toronto Center
05:51PM 44.1500 -80.6500 90° East 450 518 29,000  Level Toronto Center
05:52PM 44.1167 -80.5000 107° East 460 529 29,000  Level Toronto Center
05:53PM 44.0833 -80.3000 103° East 460 529 29,000  Level Toronto Center
05:54PM 44.0500 -80.1500 107° East 460 529 29,000  Level Toronto Center
05:55PM 44.0167 -79.9500 103° East 460 529 29,000  Level Toronto Center
05:56PM 43.9833 -79.8000 107° East 460 529 29,000  Level Toronto Center
05:57PM 43.9667 -79.6333 98° East 460 529 29,000  Level Toronto Center
05:58PM 43.9333 -79.4500 104° East 460 529 29,000  Level Toronto Center
05:59PM 43.9000 -79.2833 105° East 460 529 29,000  Level Toronto Center
06:00PM 43.8667 -79.1000 104° East 460 529 29,000  Level Toronto Center
06:01PM 43.8333 -78.9333 105° East 460 529 29,000  Level Toronto Center
06:02PM 43.8000 -78.7833 107° East 460 529 29,000  Level Toronto Center
06:03PM 43.7667 -78.6000 104° East 460 529 29,000  Level Toronto Center
06:04PM 43.7333 -78.4167 104° East 460 529 29,000  Level Toronto Center
06:05PM 43.7000 -78.2333 104° East 470 541 29,000  Level Toronto Center
06:06PM 43.6667 -78.0667 105° East 470 541 29,000  Level Toronto Center
06:07PM 43.6333 -77.9000 105° East 470 541 29,000  Level Toronto Center
06:08PM 43.6000 -77.7167 104° East 470 541 29,000  Level Toronto Center
06:09PM 43.5667 -77.5333 104° East 470 541 29,000  Level Toronto Center
06:10PM 43.5167 -77.3500 111° Southeast 470 541 29,000  Level Toronto Center
06:11PM 43.4833 -77.2000 107° East 470 541 29,000  Level Toronto Center
06:12PM 43.4500 -77.0167 104° East 470 541 29,000  Level Toronto Center
06:13PM 43.4492 -76.9539 91° East 469 540 29,000  Level Boston Center
06:14PM 43.4139 -76.7853 106° East 469 540 29,000  Level Boston Center
06:15PM 43.3861 -76.6375 104° East 454 522 29,000 -540 Level Boston Center
06:16PM 43.3503 -76.4781 107° East 443 510 28,000 -1,260 Descending Boston Center
06:17PM 43.2669 -76.3556 133° Southeast 428 493 26,500 -1,980 Descending Boston Center
06:18PM 43.1678 -76.2667 147° Southeast 415 478 24,100 -1,380 Descending Boston Center
06:19PM 43.0728 -76.1753 145° Southeast 421 484 23,800 -600 Descending Boston Center
06:20PM 42.9758 -76.0814 145° Southeast 426 490 23,000 -420 Descending Boston Center
06:21PM 42.8831 -75.9822 142° Southeast 426 490 23,000  Level Boston Center
06:22PM 42.7964 -75.8839 140° Southeast 426 490 23,000  Level Boston Center
06:23PM 42.7758 -75.7328 100° East 384 442 23,000  Level Boston Center
06:24PM 42.7742 -75.5744 91° East 391 450 23,000  Level Boston Center
06:25PM 42.7719 -75.4186 91° East 397 457 23,000  Level Boston Center
06:26PM 42.7717 -75.2658 90° East 397 457 23,000 -960 Level Boston Center
06:27PM 42.7692 -75.1158 91° East 403 464 21,100 -2,220 Descending Boston Center
06:28PM 42.7703 -74.9689 89° East 403 464 18,600 -2,580 Descending Boston Center
06:29PM 42.7650 -74.8328 93° East 382 440 16,500 -2,460 Descending Boston Center
06:30PM 42.7656 -74.7083 90° East 368 423 14,400 -2,280 Descending Boston Center
06:31PM 42.7639 -74.5725 91° East 353 406 12,200 -1,920 Descending Boston Center
06:32PM 42.7600 -74.4450 92° East 336 387 10,600 -1,920 Descending Boston Center
06:33PM 42.7597 -74.3347 90° East 293 337 8,400 -2,340 Descending Boston Center
06:34PM 42.7575 -74.2244 92° East 288 331 6,000 -2,100 Descending Boston Center
06:35PM 42.7778 -74.1258 74° East 275 316 4,200 -1,440 Descending Boston Center
06:36PM 42.8103 -74.0364 64° Northeast 258 297 3,100 -600 Descending Boston Center
06:37PM 42.8303 -73.9433 74° East 230 265 3,000 -540 Descending Boston Center
06:38PM 42.8436 -73.8700 76° East 185 213 2,100 -660 Descending Boston Center
06:39PM 42.8256 -73.8131 113° Southeast 152 175 1,700 -600 Descending Boston Center
06:40PM 42.7881 -73.8094 176° South 125 144 900 -840 Descending Boston Center
06:45PM 42.7491 -73.8020 52° Northeast  Level Estimated